Ourinhos, Brazil
Current Conditions -  °F | °C
As of 8:00 AM on Sunday 23 Nov 2014 (Local Time) from SBBU Reporting Station
Light Rain Light Rain  
Wind Chill: 70°   Ceiling: 4000
Heat Index: 70°   Visibility: 2.5mi
Dew Point: 70°   Wind: 2mph
Humidity: 100%   Direction: 150°SSE
Pressure: 29.97"   Gusts: NA
Location:  22.97°S, 49.87°W
Report Text: SBBU 231000Z 15002KT 4000 -RA BR OVC040 21/21 Q1015
Loading
Personal Weather Stations






























Interactive Weather Map New forecast layout! Learn more

10-Day Weather Forecast

Advertisements
Track Severe Weather on mobile